Time;durP1;ratioP1;P1;durP2;ratioP2;P2;SDS_P1;SDS_P2;PMS_P1;PMS_P2;Temp;Humidity;BMP_temperature;BMP_pressure;BME280_temperature;BME280_humidity;BME280_pressure;Samples;Min_cycle;Max_cycle;Signal;HPM_P1;HPM_P2
2022/09/23 00:01:04;;;;;;;11.30;5.13;;;11.50;99.90;;;;;;2616596;54;20624;-75
2022/09/23 00:04:05;;;;;;;7.60;4.93;;;11.50;99.90;;;;;;2615977;54;21074;-74
2022/09/23 00:06:31;;;;;;;4.63;4.10;;;11.60;99.90;;;;;;2616025;54;20406;-74
2022/09/23 00:12:19;;;;;;;5.00;4.50;;;11.50;99.90;;;;;;2615029;54;20159;-74
2022/09/23 00:18:07;;;;;;;4.80;4.40;;;11.60;99.90;;;;;;2615144;54;20139;-74
2022/09/23 00:23:54;;;;;;;5.03;4.53;;;11.60;99.90;;;;;;2615227;54;20426;-73
2022/09/23 00:29:42;;;;;;;5.50;4.43;;;11.80;99.90;;;;;;2615536;54;20153;-74
2022/09/23 00:35:30;;;;;;;5.17;4.70;;;11.90;99.90;;;;;;2615676;54;20158;-73
2022/09/23 00:41:18;;;;;;;5.30;4.20;;;11.90;99.90;;;;;;2615955;54;20127;-74
2022/09/23 00:53:37;;;;;;;5.40;4.90;;;11.80;99.90;;;;;;2615074;54;20384;-75
2022/09/23 00:59:27;;;;;;;5.47;5.00;;;11.60;99.90;;;;;;2614569;54;20419;-73
2022/09/23 01:08:38;;;;;;;5.10;4.70;;;11.60;99.90;;;;;;2615294;54;20399;-73
2022/09/23 01:14:30;;;;;;;4.70;4.05;;;11.60;99.90;;;;;;2613987;54;20395;-74
2022/09/23 01:27:19;;;;;;;4.77;4.20;;;11.60;99.90;;;;;;2615640;46;20415;-73
2022/09/23 01:40:16;;;;;;;5.60;5.10;;;11.60;99.90;;;;;;2614309;54;20371;-75
2022/09/23 01:46:10;;;;;;;4.87;4.47;;;11.50;99.90;;;;;;2614325;54;20362;-74
2022/09/23 01:52:08;;;;;;;4.90;4.50;;;11.40;99.90;;;;;;2614976;39;20770;-75
2022/09/23 01:58:08;;;;;;;4.70;4.30;;;11.60;99.90;;;;;;2615211;54;20430;-74
2022/09/23 02:04:09;;;;;;;6.80;4.23;;;11.70;99.90;;;;;;2614250;39;20795;-75
2022/09/23 02:29:48;;;;;;;4.83;4.43;;;11.90;99.90;;;;;;2616600;39;20392;-74
2022/09/23 02:35:47;;;;;;;4.80;4.30;;;11.80;99.90;;;;;;2616034;54;20366;-75
2022/09/23 02:41:45;;;;;;;4.73;4.33;;;11.80;99.90;;;;;;2615444;54;20418;-74
2022/09/23 02:47:37;;;;;;;4.45;4.15;;;12.00;99.90;;;;;;2616299;54;20419;-73
2022/09/23 02:53:24;;;;;;;5.20;4.33;;;12.00;99.80;;;;;;2615586;54;20504;-74
2022/09/23 02:59:12;;;;;;;4.40;3.93;;;11.90;99.90;;;;;;2614399;54;20324;-71
2022/09/23 03:08:41;;;;;;;6.90;4.30;;;12.00;98.30;;;;;;2614997;54;20134;-71
2022/09/23 03:21:12;;;;;;;4.37;3.97;;;11.90;99.80;;;;;;2615196;54;20423;-71
2022/09/23 03:27:04;;;;;;;8.20;4.77;;;11.80;99.90;;;;;;2614463;54;20415;-70
2022/09/23 03:32:53;;;;;;;7.87;4.60;;;11.60;99.90;;;;;;2615371;54;20395;-72
2022/09/23 03:38:44;;;;;;;5.20;4.10;;;11.30;99.90;;;;;;2615403;54;20532;-70
2022/09/23 03:44:38;;;;;;;4.67;4.27;;;11.40;99.90;;;;;;2614202;54;20407;-71
2022/09/23 03:50:26;;;;;;;4.40;4.00;;;11.40;99.90;;;;;;2614953;54;20383;-71
2022/09/23 03:56:14;;;;;;;5.32;4.78;;;11.20;99.90;;;;;;2615727;54;20122;-71
2022/09/23 04:02:02;;;;;;;10.23;5.30;;;10.70;99.90;;;;;;2615416;54;20390;-71
2022/09/23 04:11:11;;;;;;;6.27;5.33;;;10.10;99.90;;;;;;2614676;46;20405;-71
2022/09/23 04:16:59;;;;;;;4.68;4.38;;;10.40;99.90;;;;;;2614663;54;20134;-70
2022/09/23 04:22:47;;;;;;;6.30;5.70;;;10.20;99.90;;;;;;2615306;54;20122;-70
2022/09/23 04:28:35;;;;;;;5.67;5.27;;;10.10;99.90;;;;;;2614425;54;20162;-73
2022/09/23 04:34:22;;;;;;;4.83;4.37;;;10.80;99.90;;;;;;2612590;54;20134;-71
2022/09/23 04:40:10;;;;;;;8.35;4.90;;;10.70;99.90;;;;;;2614975;54;20286;-71
2022/09/23 04:46:00;;;;;;;5.35;4.95;;;10.90;99.90;;;;;;2615223;54;20122;-71
2022/09/23 04:51:47;;;;;;;6.40;4.37;;;10.70;99.90;;;;;;2614333;54;20475;-72
2022/09/23 04:57:35;;;;;;;4.53;4.13;;;10.90;99.90;;;;;;2614169;54;21180;-72
2022/09/23 05:03:24;;;;;;;4.33;3.80;;;10.90;99.90;;;;;;2613361;54;20184;-72
2022/09/23 05:06:39;;;;;;;7.80;4.97;;;10.70;99.90;;;;;;2614155;54;20410;-72
2022/09/23 05:09:07;;;;;;;5.40;4.90;;;10.70;99.90;;;;;;2613604;47;20438;-73
2022/09/23 05:14:55;;;;;;;4.68;4.30;;;10.40;99.90;;;;;;2614023;54;20390;-73
2022/09/23 05:20:42;;;;;;;12.55;4.70;;;10.30;99.90;;;;;;2614435;54;20519;-72
2022/09/23 05:26:31;;;;;;;5.60;5.10;;;10.20;99.90;;;;;;2614603;39;20507;-71
2022/09/23 05:32:20;;;;;;;6.90;6.30;;;9.80;99.90;;;;;;2615411;54;20539;-71
2022/09/23 05:38:08;;;;;;;6.53;6.13;;;9.80;99.90;;;;;;2614469;54;20401;-72
2022/09/23 05:43:56;;;;;;;6.83;6.13;;;9.70;99.90;;;;;;2615484;54;20421;-72
2022/09/23 05:49:44;;;;;;;5.60;5.20;;;9.70;99.90;;;;;;2613495;54;20308;-71
2022/09/23 05:55:38;;;;;;;6.00;5.50;;;10.10;99.90;;;;;;2616305;54;20158;-70
2022/09/23 06:01:31;;;;;;;6.47;5.90;;;10.00;99.90;;;;;;2615870;46;20177;-71
2022/09/23 06:11:12;;;;;;;6.00;5.40;;;10.30;99.90;;;;;;2614514;54;20550;-72
2022/09/23 06:17:00;;;;;;;8.40;7.53;;;10.70;99.90;;;;;;2613995;54;20441;-72
2022/09/23 06:22:48;;;;;;;5.70;5.10;;;11.00;99.90;;;;;;2612339;54;20687;-71
2022/09/23 06:28:38;;;;;;;9.02;5.25;;;11.90;99.90;;;;;;2614780;46;20166;-72
2022/09/23 06:34:25;;;;;;;6.03;5.43;;;12.50;99.90;;;;;;2615281;54;20495;-71
2022/09/23 06:40:14;;;;;;;5.60;5.20;;;12.80;99.20;;;;;;2615546;54;20130;-71
2022/09/23 06:46:04;;;;;;;5.13;4.70;;;14.00;77.60;;;;;;2615904;54;20142;-71
2022/09/23 06:51:51;;;;;;;5.80;5.30;;;14.90;59.20;;;;;;2614911;54;20386;-71
2022/09/23 06:57:40;;;;;;;4.80;4.47;;;15.20;48.40;;;;;;2615386;39;20647;-72
2022/09/23 07:03:28;;;;;;;6.30;5.50;;;15.70;47.80;;;;;;2614945;54;20379;-70
2022/09/23 07:06:39;;;;;;;6.50;5.90;;;16.20;38.70;;;;;;2615269;54;20426;-71
2022/09/23 07:09:06;;;;;;;5.03;4.53;;;16.90;31.60;;;;;;2615407;54;20972;-74
2022/09/23 07:14:53;;;;;;;5.57;5.17;;;16.80;33.00;;;;;;2615049;54;20505;-72
2022/09/23 07:20:41;;;;;;;5.82;4.40;;;17.00;30.10;;;;;;2614714;54;20130;-70
2022/09/23 07:23:26;;;;;;;7.53;5.60;;;16.30;36.70;;;;;;2615324;54;20162;-71
2022/09/23 07:25:51;;;;;;;7.13;5.47;;;16.10;36.30;;;;;;2615664;54;20694;-71
2022/09/23 07:31:41;;;;;;;5.87;5.37;;;15.80;40.20;;;;;;2615249;54;20251;-71
2022/09/23 07:37:28;;;;;;;5.80;5.23;;;16.30;40.70;;;;;;2614693;54;20936;-71
2022/09/23 07:43:17;;;;;;;6.47;5.97;;;16.90;34.60;;;;;;2615324;39;20651;-72
2022/09/23 07:49:05;;;;;;;5.97;5.47;;;16.60;36.20;;;;;;2612607;54;20411;-72
2022/09/23 07:54:53;;;;;;;5.22;4.65;;;17.30;33.50;;;;;;2614932;54;20158;-70
2022/09/23 08:00:40;;;;;;;7.20;5.63;;;17.20;34.30;;;;;;2615195;54;20460;-72
2022/09/23 08:06:29;;;;;;;5.43;5.03;;;16.90;37.80;;;;;;2614556;54;20154;-72
2022/09/23 08:12:17;;;;;;;5.75;5.25;;;17.20;34.10;;;;;;2616081;39;20559;-72
2022/09/23 08:18:05;;;;;;;5.03;4.63;;;16.80;38.30;;;;;;2614614;54;20418;-71
2022/09/23 08:23:53;;;;;;;9.00;4.45;;;16.80;38.70;;;;;;2614619;54;20155;-71
2022/09/23 08:29:41;;;;;;;4.40;4.10;;;17.20;39.40;;;;;;2614357;54;20125;-73
2022/09/23 08:32:44;;;;;;;5.73;5.07;;;17.50;37.90;;;;;;2615535;31;20884;-71
2022/09/23 08:35:10;;;;;;;5.10;4.40;;;16.80;37.10;;;;;;2614102;54;20179;-71
2022/09/23 08:51:45;;;;;;;5.33;4.77;;;17.40;36.40;;;;;;2613155;39;20842;-71
2022/09/23 08:57:32;;;;;;;5.77;5.30;;;17.60;32.10;;;;;;2612911;54;20409;-71
2022/09/23 09:03:23;;;;;;;5.43;4.53;;;17.40;31.90;;;;;;2613148;54;20151;-74
2022/09/23 09:06:39;;;;;;;5.20;4.70;;;17.90;29.50;;;;;;2613504;54;20423;-70
2022/09/23 09:15:25;;;;;;;5.13;4.73;;;17.60;29.80;;;;;;2610360;54;20378;-72
2022/09/23 09:21:13;;;;;;;4.63;4.33;;;17.30;31.00;;;;;;2614298;54;21049;-72
2022/09/23 09:33:20;;;;;;;4.70;4.40;;;17.70;28.10;;;;;;2613938;54;20422;-71
2022/09/23 09:39:12;;;;;;;4.80;4.50;;;17.80;27.00;;;;;;2613617;54;20606;-73
2022/09/23 09:51:31;;;;;;;7.30;4.73;;;18.80;21.90;;;;;;2614688;54;20383;-71
2022/09/23 11:21:05;;;;;;;4.63;4.23;;;19.90;13.30;;;;;;2614791;54;20410;-72
2022/09/23 11:27:15;;;;;;;4.90;4.20;;;20.40;13.80;;;;;;2615606;54;20434;-75
2022/09/23 11:45:57;;;;;;;5.70;4.30;;;22.30;7.70;;;;;;2613121;54;20463;-72
2022/09/23 12:04:41;;;;;;;4.97;4.60;;;22.70;7.70;;;;;;2615282;54;20378;-71
2022/09/23 12:14:33;;;;;;;5.93;4.80;;;21.20;8.70;;;;;;2614357;46;20399;-72
2022/09/23 12:26:57;;;;;;;5.17;4.63;;;20.20;11.20;;;;;;2613533;54;20541;-72
2022/09/23 12:36:09;;;;;;;4.37;3.97;;;20.50;10.40;;;;;;2613192;54;20379;-73
2022/09/23 12:42:03;;;;;;;7.30;4.90;;;20.90;10.10;;;;;;2614790;54;20531;-71
2022/09/23 12:47:51;;;;;;;4.93;4.50;;;19.80;11.00;;;;;;2613921;54;20932;-71
2022/09/23 13:00:11;;;;;;;5.50;5.10;;;19.80;12.20;;;;;;2614776;54;20402;-72
2022/09/23 13:12:44;;;;;;;6.43;5.47;;;19.60;12.70;;;;;;2613211;54;20178;-73
2022/09/23 13:15:22;;;;;;;5.10;4.70;;;19.30;13.20;;;;;;2612256;47;20414;-74
2022/09/23 13:27:48;;;;;;;5.33;4.23;;;19.20;13.90;;;;;;2614642;54;20400;-73
2022/09/23 13:33:42;;;;;;;5.50;5.00;;;19.20;14.40;;;;;;2613680;54;20399;-72
2022/09/23 13:39:30;;;;;;;5.17;4.77;;;18.90;14.60;;;;;;2612805;46;20421;-71
2022/09/23 13:45:21;;;;;;;7.30;5.50;;;19.30;14.00;;;;;;2610859;54;20274;-71
2022/09/23 13:51:14;;;;;;;6.50;4.73;;;18.90;16.00;;;;;;2612720;54;21570;-71
2022/09/23 13:57:03;;;;;;;5.70;5.30;;;19.20;16.90;;;;;;2614479;31;20893;-72
2022/09/23 14:02:51;;;;;;;5.87;4.50;;;19.00;17.10;;;;;;2614499;54;20378;-71
2022/09/23 14:08:43;;;;;;;5.53;4.70;;;19.10;17.40;;;;;;2615033;54;20564;-72
2022/09/23 14:24:17;;;;;;;6.17;5.57;;;18.80;18.70;;;;;;2614722;54;20374;-71
2022/09/23 14:30:05;;;;;;;6.30;5.67;;;19.00;17.30;;;;;;2614731;39;20806;-73
2022/09/23 14:33:08;;;;;;;6.80;5.10;;;18.60;17.70;;;;;;2614747;54;20417;-71
2022/09/23 14:35:41;;;;;;;8.97;5.73;;;18.70;17.80;;;;;;2614574;47;20408;-71
2022/09/23 14:41:34;;;;;;;5.73;5.30;;;18.80;18.80;;;;;;2613214;54;20370;-72
2022/09/23 14:47:22;;;;;;;5.97;5.37;;;18.90;18.60;;;;;;2615372;54;20379;-72
2022/09/23 14:53:19;;;;;;;5.40;4.90;;;18.60;20.10;;;;;;2613416;54;20405;-72
2022/09/23 15:05:51;;;;;;;7.17;5.90;;;18.40;21.10;;;;;;2613504;54;20922;-70
2022/09/23 15:11:39;;;;;;;5.55;5.15;;;18.50;21.70;;;;;;2615653;54;20383;-72
2022/09/23 15:27:36;;;;;;;5.50;5.00;;;18.20;22.60;;;;;;2612951;54;20454;-73
2022/09/23 15:33:26;;;;;;;5.63;4.67;;;18.00;23.10;;;;;;2613504;54;20142;-72
2022/09/23 15:39:14;;;;;;;4.85;4.45;;;17.90;25.00;;;;;;2612129;54;20366;-72
2022/09/23 15:45:01;;;;;;;8.43;5.20;;;17.80;25.70;;;;;;2613516;39;20543;-72
2022/09/23 15:50:53;;;;;;;5.77;5.27;;;17.70;27.10;;;;;;2613862;54;20115;-73
2022/09/23 15:56:40;;;;;;;7.17;5.50;;;17.90;26.70;;;;;;2613378;54;20901;-71
2022/09/23 16:02:27;;;;;;;10.07;6.27;;;17.70;28.20;;;;;;2615379;39;20545;-72
2022/09/23 16:08:18;;;;;;;6.03;5.57;;;17.70;27.90;;;;;;2614858;31;20842;-73
2022/09/23 16:14:12;;;;;;;6.90;6.20;;;17.60;29.10;;;;;;2613076;54;20376;-71
2022/09/23 16:23:32;;;;;;;9.13;5.63;;;17.20;40.20;;;;;;2611952;54;20486;-72
2022/09/23 16:29:20;;;;;;;6.00;5.50;;;16.90;64.40;;;;;;2614534;54;20360;-72
2022/09/23 16:35:08;;;;;;;8.82;6.32;;;16.90;68.40;;;;;;2613384;54;20154;-71
2022/09/23 16:40:58;;;;;;;7.57;5.63;;;16.90;78.10;;;;;;2613185;54;20129;-72
2022/09/23 16:46:47;;;;;;;9.97;7.33;;;16.70;71.10;;;;;;2613687;54;20157;-71
2022/09/23 16:52:34;;;;;;;11.40;8.50;;;16.70;83.00;;;;;;2612886;39;20665;-72
2022/09/23 16:58:23;;;;;;;13.53;7.20;;;16.50;97.10;;;;;;2612370;54;20131;-71
2022/09/23 17:04:12;;;;;;;24.63;7.87;;;16.50;91.10;;;;;;2614170;54;20173;-72
2022/09/23 17:09:59;;;;;;;11.27;7.63;;;16.50;82.10;;;;;;2614166;54;20398;-71
2022/09/23 17:15:47;;;;;;;7.23;6.13;;;16.30;91.80;;;;;;2614640;54;20139;-73
2022/09/23 17:18:38;;;;;;;11.10;5.60;;;16.30;89.50;;;;;;2614432;54;20396;-70
2022/09/23 17:21:06;;;;;;;7.23;6.53;;;16.30;79.80;;;;;;2614154;39;20580;-71
2022/09/23 17:26:54;;;;;;;6.50;5.90;;;16.20;81.80;;;;;;2614195;54;20511;-71
2022/09/23 17:32:42;;;;;;;14.57;8.27;;;16.20;88.70;;;;;;2614624;54;20199;-72
2022/09/23 17:38:30;;;;;;;11.40;7.93;;;16.10;95.20;;;;;;2613704;39;20801;-72
2022/09/23 17:44:18;;;;;;;11.80;8.50;;;16.00;98.70;;;;;;2614087;54;20151;-72
2022/09/23 17:50:06;;;;;;;15.47;8.87;;;15.90;98.60;;;;;;2612593;54;20130;-74
2022/09/23 18:06:53;;;;;;;11.30;7.40;;;15.40;99.90;;;;;;2612750;54;20391;-72
2022/09/23 18:12:40;;;;;;;18.57;16.77;;;15.30;99.90;;;;;;2614411;54;20668;-73
2022/09/23 18:18:28;;;;;;;10.70;9.60;;;15.40;99.90;;;;;;2613556;54;20154;-71
2022/09/23 18:24:17;;;;;;;13.93;9.87;;;15.30;99.90;;;;;;2614149;54;20126;-72
2022/09/23 18:30:05;;;;;;;15.03;13.60;;;15.20;99.90;;;;;;2613008;54;20420;-75
2022/09/23 18:35:53;;;;;;;13.90;8.07;;;15.10;99.90;;;;;;2614389;54;20940;-72
2022/09/23 18:41:41;;;;;;;10.97;8.90;;;14.80;99.90;;;;;;2613954;31;20596;-73
2022/09/23 18:53:35;;;;;;;14.77;9.03;;;14.70;99.90;;;;;;2612148;54;20399;-75
2022/09/23 18:59:28;;;;;;;12.75;9.00;;;14.70;99.90;;;;;;2612242;54;20451;-71
2022/09/23 19:05:18;;;;;;;10.90;8.80;;;14.90;99.90;;;;;;2612025;54;20139;-71
2022/09/23 19:11:08;;;;;;;9.90;7.97;;;15.00;99.90;;;;;;2613478;54;20149;-73
2022/09/23 19:16:57;;;;;;;9.40;8.50;;;14.70;99.90;;;;;;2612522;54;20430;-73
2022/09/23 19:26:09;;;;;;;9.43;8.53;;;14.40;99.90;;;;;;2612087;54;20675;-74
2022/09/23 19:31:58;;;;;;;12.13;9.17;;;14.20;99.90;;;;;;2613878;54;20386;-73
2022/09/23 19:37:48;;;;;;;9.80;8.80;;;14.10;99.90;;;;;;2614518;54;20523;-72
2022/09/23 19:43:38;;;;;;;9.40;7.77;;;14.10;99.90;;;;;;2612113;54;20467;-72
2022/09/23 19:49:25;;;;;;;9.53;8.50;;;14.00;99.90;;;;;;2612982;54;20955;-71
2022/09/23 19:55:13;;;;;;;14.50;12.47;;;13.90;99.90;;;;;;2612627;39;20528;-72
2022/09/23 20:01:06;;;;;;;15.50;12.05;;;13.90;99.90;;;;;;2612729;54;20192;-71
2022/09/23 20:06:53;;;;;;;11.90;10.70;;;14.10;99.90;;;;;;2611534;54;20399;-71
2022/09/23 20:12:42;;;;;;;12.90;10.30;;;14.00;99.90;;;;;;2610582;54;20662;-71
2022/09/23 20:18:30;;;;;;;12.33;10.20;;;14.00;99.90;;;;;;2611942;54;20154;-74
2022/09/23 20:21:28;;;;;;;12.07;10.67;;;13.90;99.90;;;;;;2610685;46;20553;-73
2022/09/23 20:23:54;;;;;;;11.20;10.20;;;13.80;99.90;;;;;;2611832;39;20547;-73
2022/09/23 20:29:42;;;;;;;12.00;8.83;;;13.80;99.90;;;;;;2610201;54;20387;-73
2022/09/23 20:35:31;;;;;;;10.33;8.83;;;14.00;99.90;;;;;;2612031;54;20157;-72
2022/09/23 20:41:20;;;;;;;10.60;9.70;;;13.90;99.90;;;;;;2612438;54;20403;-72
2022/09/23 20:47:12;;;;;;;11.53;9.93;;;13.80;99.90;;;;;;2611485;54;20170;-71
2022/09/23 20:53:00;;;;;;;11.80;10.60;;;13.90;99.90;;;;;;2610800;54;20378;-72
2022/09/23 20:58:49;;;;;;;11.50;10.30;;;14.00;99.90;;;;;;2612130;54;20134;-72
2022/09/23 21:04:36;;;;;;;11.33;9.33;;;14.10;99.90;;;;;;2610975;39;20734;-73
2022/09/23 21:10:24;;;;;;;13.73;10.03;;;14.20;99.90;;;;;;2611803;54;20137;-71
2022/09/23 21:16:14;;;;;;;14.00;11.20;;;14.10;99.90;;;;;;2614164;54;20126;-71
2022/09/23 21:32:24;;;;;;;11.47;9.70;;;14.00;99.90;;;;;;2611836;47;21029;-72
2022/09/23 21:38:12;;;;;;;10.93;8.60;;;14.10;99.90;;;;;;2611492;54;20134;-71
2022/09/23 21:43:59;;;;;;;11.57;9.93;;;14.30;99.90;;;;;;2609216;54;20134;-74
2022/09/23 21:49:46;;;;;;;10.37;9.43;;;14.10;99.90;;;;;;2612343;54;20134;-73
2022/09/23 21:55:34;;;;;;;9.47;8.50;;;14.10;99.90;;;;;;2610770;54;21852;-71
2022/09/23 22:01:26;;;;;;;11.23;9.40;;;14.00;99.90;;;;;;2611536;54;20147;-71
2022/09/23 22:07:14;;;;;;;9.20;8.30;;;14.10;99.90;;;;;;2613263;54;20447;-72
2022/09/23 22:13:03;;;;;;;10.87;9.70;;;14.20;99.90;;;;;;2612947;39;20571;-72
2022/09/23 22:18:54;;;;;;;10.77;9.50;;;14.10;99.90;;;;;;2614437;39;20461;-71
2022/09/23 22:21:29;;;;;;;10.47;9.33;;;14.10;99.90;;;;;;2613802;54;20435;-73
2022/09/23 22:23:59;;;;;;;10.07;9.10;;;14.10;99.90;;;;;;2614650;54;20410;-72
2022/09/23 22:36:01;;;;;;;13.45;9.00;;;14.10;99.90;;;;;;2613228;54;21035;-72
2022/09/23 22:41:49;;;;;;;9.80;8.82;;;14.10;99.90;;;;;;2612793;54;20398;-72
2022/09/23 22:47:39;;;;;;;12.05;9.35;;;13.90;99.90;;;;;;2612964;54;20419;-73
2022/09/23 22:53:27;;;;;;;10.50;9.40;;;14.10;99.90;;;;;;2613441;54;20390;-70
2022/09/23 22:59:14;;;;;;;10.83;8.77;;;14.10;99.90;;;;;;2614632;54;20426;-71
2022/09/23 23:05:03;;;;;;;13.80;8.90;;;13.80;99.90;;;;;;2613319;54;20153;-72
2022/09/23 23:10:50;;;;;;;12.30;9.13;;;14.10;99.90;;;;;;2614222;54;20955;-71
2022/09/23 23:16:38;;;;;;;9.23;8.37;;;14.10;99.90;;;;;;2613866;54;20149;-72
2022/09/23 23:36:07;;;;;;;10.20;9.10;;;14.10;99.90;;;;;;2610988;54;20391;-72
2022/09/23 23:41:55;;;;;;;10.73;8.82;;;14.00;99.90;;;;;;2613675;39;20770;-70
2022/09/23 23:47:43;;;;;;;13.53;10.17;;;13.80;99.90;;;;;;2611963;54;20419;-72
2022/09/23 23:53:33;;;;;;;10.80;9.70;;;13.70;99.90;;;;;;2612756;54;20382;-72
2022/09/23 23:59:20;;;;;;;12.10;10.90;;;13.60;99.90;;;;;;2613197;54;20960;-71
